Time;durP1;ratioP1;P1;durP2;ratioP2;P2;SDS_P1;SDS_P2;PMS_P1;PMS_P2;Temp;Humidity;BMP_temperature;BMP_pressure;BME280_temperature;BME280_humidity;BME280_pressure;Samples;Min_cycle;Max_cycle;Signal;HPM_P1;HPM_P2
2021/07/30 07:26:01;;;;;;;10.55;8.82;;;;;;;;;;5819338;23;20460;-80
2021/07/30 07:28:26;;;;;;;11.05;8.65;;;;;;;;;;4936330;29;20039;-80
2021/07/30 07:30:53;;;;;;;9.70;8.73;;;;;;;;;;4936146;29;20049;-81
2021/07/30 07:33:19;;;;;;;12.70;9.70;;;;;;;;;;4936411;29;20024;-81
2021/07/30 07:35:44;;;;;;;14.23;8.63;;;;;;;;;;4936129;29;20052;-82
2021/07/30 07:38:10;;;;;;;16.58;10.25;;;;;;;;;;4919228;29;20036;-82
2021/07/30 07:40:35;;;;;;;10.55;9.30;;;;;;;;;;4919245;29;20028;-82
2021/07/30 07:43:02;;;;;;;11.88;8.65;;;;;;;;;;4940322;29;20031;-81
2021/07/30 07:45:27;;;;;;;10.63;8.63;;;;;;;;;;4940455;29;20028;-79
2021/07/30 07:47:54;;;;;;;10.68;9.25;;;;;;;;;;4939949;29;20118;-79
2021/07/30 07:50:20;;;;;;;16.80;9.38;;;;;;;;;;4939893;29;20048;-81
2021/07/30 07:52:45;;;;;;;14.10;10.13;;;;;;;;;;4941092;29;20027;-79
2021/07/30 07:55:11;;;;;;;13.38;9.13;;;;;;;;;;4941222;29;20079;-80
2021/07/30 07:57:43;;;;;;;14.32;9.65;;;;;;;;;;4939941;29;20102;-81
2021/07/30 08:00:10;;;;;;;20.58;9.63;;;;;;;;;;4939956;29;20028;-80
2021/07/30 08:02:35;;;;;;;16.60;10.02;;;;;;;;;;4939818;29;20038;-78
2021/07/30 08:05:01;;;;;;;14.23;9.63;;;;;;;;;;4939988;29;20445;-81
2021/07/30 08:07:26;;;;;;;13.98;10.98;;;;;;;;;;4939745;29;20479;-81
2021/07/30 08:09:51;;;;;;;14.32;10.40;;;;;;;;;;4922743;29;20031;-81
2021/07/30 08:12:18;;;;;;;11.80;9.90;;;;;;;;;;4939683;29;20059;-81
2021/07/30 08:14:43;;;;;;;11.32;10.18;;;;;;;;;;4939877;29;20382;-81
2021/07/30 08:17:09;;;;;;;14.13;10.30;;;;;;;;;;4939460;29;20033;-80
2021/07/30 08:19:35;;;;;;;11.35;10.18;;;;;;;;;;4939637;29;20575;-83
2021/07/30 08:22:02;;;;;;;15.07;11.07;;;;;;;;;;4939709;29;20407;-80
2021/07/30 08:24:28;;;;;;;13.32;10.55;;;;;;;;;;4939582;29;20031;-80
2021/07/30 08:26:53;;;;;;;10.60;9.50;;;;;;;;;;4922074;29;20048;-80
2021/07/30 08:29:19;;;;;;;11.30;10.18;;;;;;;;;;4939514;29;20074;-81
2021/07/30 08:31:44;;;;;;;10.93;9.40;;;;;;;;;;4939751;29;20024;-83
2021/07/30 08:34:13;;;;;;;12.43;10.20;;;;;;;;;;4941826;29;20035;-85
2021/07/30 08:36:39;;;;;;;22.10;11.30;;;;;;;;;;4940099;29;20031;-80
2021/07/30 08:39:04;;;;;;;16.75;11.23;;;;;;;;;;4939233;29;20406;-80
2021/07/30 08:41:29;;;;;;;13.15;9.50;;;;;;;;;;4922265;29;20118;-81
2021/07/30 08:43:56;;;;;;;12.07;10.27;;;;;;;;;;4939065;29;20020;-87
2021/07/30 08:46:25;;;;;;;13.57;10.88;;;;;;;;;;4938977;29;20372;-85
2021/07/30 08:48:52;;;;;;;12.55;10.90;;;;;;;;;;4939370;29;20020;-88
2021/07/30 08:51:19;;;;;;;12.02;10.38;;;;;;;;;;4938952;29;20390;-86
2021/07/30 08:53:46;;;;;;;12.63;10.07;;;;;;;;;;4940255;29;20023;-87
2021/07/30 08:56:13;;;;;;;12.07;10.10;;;;;;;;;;4939302;29;20165;-88
2021/07/30 08:58:38;;;;;;;14.77;10.38;;;;;;;;;;4939248;29;20475;-90
2021/07/30 09:01:04;;;;;;;12.15;9.77;;;;;;;;;;4938925;29;20032;-88
2021/07/30 09:03:40;;;;;;;11.50;10.38;;;;;;;;;;4939071;29;20024;-90
2021/07/30 09:06:12;;;;;;;11.77;9.93;;;;;;;;;;4939072;29;20031;-91
2021/07/30 09:08:39;;;;;;;10.85;9.75;;;;;;;;;;4938856;29;20048;-90
2021/07/30 09:11:04;;;;;;;15.90;10.05;;;;;;;;;;4938741;29;20051;-89
2021/07/30 09:13:32;;;;;;;13.95;11.07;;;;;;;;;;4938803;29;20042;-89
2021/07/30 09:16:11;;;;;;;11.73;10.52;;;;;;;;;;4938709;29;20024;-89
2021/07/30 09:18:37;;;;;;;13.80;10.32;;;;;;;;;;4938739;29;20028;-89
2021/07/30 09:21:24;;;;;;;11.43;10.25;;;;;;;;;;4938812;29;20023;-89
2021/07/30 09:23:53;;;;;;;10.55;9.45;;;;;;;;;;4938499;29;20074;-90
2021/07/30 09:26:30;;;;;;;11.30;10.13;;;;;;;;;;4938452;29;20080;-88
2021/07/30 09:28:56;;;;;;;10.63;9.43;;;;;;;;;;4938380;29;20043;-89
2021/07/30 09:31:34;;;;;;;9.77;8.77;;;;;;;;;;4938556;29;20035;-89
2021/07/30 09:34:30;;;;;;;12.40;9.63;;;;;;;;;;4938447;29;20035;-83
2021/07/30 09:36:58;;;;;;;11.38;9.00;;;;;;;;;;4928004;29;20503;-91
2021/07/30 09:39:26;;;;;;;11.30;9.23;;;;;;;;;;4938346;29;20055;-85
2021/07/30 09:42:00;;;;;;;11.00;9.90;;;;;;;;;;4938309;29;20201;-91
2021/07/30 09:44:27;;;;;;;14.02;10.50;;;;;;;;;;4938179;29;20027;-93
2021/07/30 09:47:02;;;;;;;12.65;9.68;;;;;;;;;;4938218;29;20027;-95
2021/07/30 09:49:44;;;;;;;11.57;10.38;;;;;;;;;;4942834;29;20379;-86
2021/07/30 09:52:16;;;;;;;12.13;10.20;;;;;;;;;;4937977;29;20030;-86
2021/07/30 09:54:46;;;;;;;12.23;10.57;;;;;;;;;;4938694;29;20360;-85
2021/07/30 09:57:14;;;;;;;13.10;11.07;;;;;;;;;;4937946;29;20569;-84
2021/07/30 09:59:44;;;;;;;12.35;10.80;;;;;;;;;;4938203;29;20038;-85
2021/07/30 10:02:16;;;;;;;12.27;10.77;;;;;;;;;;4937827;29;20031;-86
2021/07/30 10:04:49;;;;;;;11.07;10.02;;;;;;;;;;4936998;29;20039;-86
2021/07/30 10:07:20;;;;;;;12.02;10.60;;;;;;;;;;4937864;29;20118;-85
2021/07/30 10:12:26;;;;;;;12.55;11.25;;;;;;;;;;4937983;29;20131;-81
2021/07/30 10:14:51;;;;;;;12.32;11.10;;;;;;;;;;4937615;29;20438;-84
2021/07/30 10:17:26;;;;;;;12.40;11.10;;;;;;;;;;4937646;29;20023;-81
2021/07/30 10:19:52;;;;;;;14.77;11.13;;;;;;;;;;4937645;29;20047;-82
2021/07/30 10:22:18;;;;;;;12.85;11.63;;;;;;;;;;4937182;29;20031;-85
2021/07/30 10:24:55;;;;;;;13.18;10.95;;;;;;;;;;4937571;29;20039;-81
2021/07/30 10:27:24;;;;;;;17.48;10.27;;;;;;;;;;4937088;29;20130;-79
2021/07/30 10:30:09;;;;;;;12.80;10.98;;;;;;;;;;4937476;29;20028;-81
2021/07/30 10:32:43;;;;;;;11.93;10.68;;;;;;;;;;4937075;29;20028;-80
2021/07/30 10:35:10;;;;;;;12.75;10.50;;;;;;;;;;4937224;29;20447;-80
2021/07/30 10:37:37;;;;;;;11.93;9.95;;;;;;;;;;4937371;29;20035;-80
2021/07/30 10:40:13;;;;;;;11.82;10.43;;;;;;;;;;4936838;29;20056;-80
2021/07/30 10:43:02;;;;;;;11.25;10.10;;;;;;;;;;4937143;29;20023;-80
2021/07/30 10:45:28;;;;;;;11.52;9.90;;;;;;;;;;4937283;29;20026;-79
2021/07/30 10:48:12;;;;;;;11.38;9.43;;;;;;;;;;4937107;29;20031;-82
2021/07/30 10:50:41;;;;;;;11.57;10.05;;;;;;;;;;4937544;29;20397;-80
2021/07/30 10:53:36;;;;;;;11.80;10.00;;;;;;;;;;4936984;29;20110;-82
2021/07/30 10:56:03;;;;;;;10.55;9.23;;;;;;;;;;4937103;29;20495;-80
2021/07/30 10:58:41;;;;;;;10.10;8.98;;;;;;;;;;4937077;29;20060;-81
2021/07/30 11:01:15;;;;;;;12.55;9.27;;;;;;;;;;4936477;29;20054;-81
2021/07/30 11:03:52;;;;;;;12.75;10.35;;;;;;;;;;4936607;29;20099;-80
2021/07/30 11:06:28;;;;;;;11.00;9.70;;;;;;;;;;4936799;29;20028;-81
2021/07/30 11:09:17;;;;;;;12.98;9.73;;;;;;;;;;4936493;29;20038;-81
2021/07/30 11:12:02;;;;;;;12.82;9.90;;;;;;;;;;4936475;29;20028;-81
2021/07/30 11:14:29;;;;;;;12.65;10.30;;;;;;;;;;4936604;29;20047;-81
2021/07/30 11:17:06;;;;;;;11.20;9.70;;;;;;;;;;4936416;29;20036;-81
2021/07/30 11:19:37;;;;;;;12.02;10.13;;;;;;;;;;4936656;29;20031;-80
2021/07/30 11:22:05;;;;;;;11.40;10.18;;;;;;;;;;4936416;29;20059;-80
2021/07/30 11:24:30;;;;;;;15.10;10.05;;;;;;;;;;4936320;29;20024;-80
2021/07/30 11:26:56;;;;;;;12.10;10.05;;;;;;;;;;4936303;29;20074;-81
2021/07/30 11:29:23;;;;;;;11.23;9.57;;;;;;;;;;4936252;29;20115;-79
2021/07/30 11:31:56;;;;;;;11.82;8.98;;;;;;;;;;4936274;29;20028;-82
2021/07/30 11:34:28;;;;;;;11.38;9.68;;;;;;;;;;4936379;29;20031;-81
2021/07/30 11:36:54;;;;;;;9.85;8.85;;;;;;;;;;4936325;29;20114;-79
2021/07/30 11:39:19;;;;;;;11.07;8.02;;;;;;;;;;4936099;29;20159;-79
2021/07/30 11:41:50;;;;;;;12.15;9.60;;;;;;;;;;4936259;29;20027;-80
2021/07/30 11:44:17;;;;;;;11.02;9.77;;;;;;;;;;4935205;29;20570;-80
2021/07/30 11:46:51;;;;;;;13.27;9.35;;;;;;;;;;4935561;29;20044;-82
2021/07/30 11:49:16;;;;;;;11.25;8.90;;;;;;;;;;4936021;29;20106;-79
2021/07/30 11:51:43;;;;;;;10.05;8.98;;;;;;;;;;4935833;29;20415;-79
2021/07/30 11:54:09;;;;;;;10.10;9.07;;;;;;;;;;4918780;29;20027;-79
2021/07/30 11:56:43;;;;;;;12.13;9.90;;;;;;;;;;4936040;29;20514;-79
2021/07/30 11:59:09;;;;;;;9.68;8.57;;;;;;;;;;4936217;29;20032;-79
2021/07/30 12:01:34;;;;;;;10.35;9.25;;;;;;;;;;4936062;29;20027;-79
2021/07/30 12:04:10;;;;;;;12.00;10.25;;;;;;;;;;4936155;29;20040;-80
2021/07/30 12:06:47;;;;;;;12.13;9.18;;;;;;;;;;4936118;29;20379;-81
2021/07/30 12:09:15;;;;;;;11.00;9.00;;;;;;;;;;4936028;29;20042;-81
2021/07/30 12:11:49;;;;;;;11.60;9.13;;;;;;;;;;4935296;29;20565;-79
2021/07/30 12:14:15;;;;;;;12.50;9.88;;;;;;;;;;4935368;29;20122;-79
2021/07/30 12:16:41;;;;;;;11.52;9.48;;;;;;;;;;4935672;29;20106;-81
2021/07/30 12:19:07;;;;;;;16.65;9.77;;;;;;;;;;4918638;29;20060;-80
2021/07/30 12:21:34;;;;;;;10.70;9.15;;;;;;;;;;4935652;29;20020;-80
2021/07/30 12:24:07;;;;;;;11.23;9.88;;;;;;;;;;4935794;29;20038;-80
2021/07/30 12:26:37;;;;;;;10.65;8.98;;;;;;;;;;4918521;29;20517;-80
2021/07/30 12:29:04;;;;;;;13.60;9.18;;;;;;;;;;4939206;29;20436;-79
2021/07/30 12:31:31;;;;;;;13.05;10.07;;;;;;;;;;4939390;29;20028;-80
2021/07/30 12:34:16;;;;;;;13.35;9.82;;;;;;;;;;4939199;29;20039;-80
2021/07/30 12:36:43;;;;;;;10.65;9.02;;;;;;;;;;4939406;29;20124;-81
2021/07/30 12:39:09;;;;;;;13.77;10.75;;;;;;;;;;4939466;29;20451;-80
2021/07/30 12:41:35;;;;;;;14.02;10.32;;;;;;;;;;4939064;29;20032;-80
2021/07/30 12:44:11;;;;;;;9.90;8.90;;;;;;;;;;4938999;29;20086;-81
2021/07/30 12:46:39;;;;;;;10.57;8.95;;;;;;;;;;4939248;29;20024;-80
2021/07/30 12:49:08;;;;;;;15.40;10.80;;;;;;;;;;4939231;29;20521;-81
2021/07/30 12:51:34;;;;;;;12.55;9.77;;;;;;;;;;4939153;29;20118;-81
2021/07/30 12:54:07;;;;;;;12.05;10.35;;;;;;;;;;4939216;29;20391;-80
2021/07/30 12:57:03;;;;;;;16.90;9.88;;;;;;;;;;4939043;29;20031;-80
2021/07/30 13:00:08;;;;;;;12.85;10.85;;;;;;;;;;4938947;29;20534;-80
2021/07/30 13:02:37;;;;;;;19.70;11.88;;;;;;;;;;4938698;29;20059;-80
2021/07/30 13:05:06;;;;;;;15.18;10.57;;;;;;;;;;4938843;29;20050;-80
2021/07/30 13:07:32;;;;;;;20.63;11.30;;;;;;;;;;4921595;29;20062;-80
2021/07/30 13:09:57;;;;;;;13.55;10.07;;;;;;;;;;4938767;29;20059;-81
2021/07/30 13:12:23;;;;;;;14.23;10.25;;;;;;;;;;4938910;29;20028;-80
2021/07/30 13:14:48;;;;;;;14.77;10.60;;;;;;;;;;4938524;29;20111;-80
2021/07/30 13:17:14;;;;;;;12.90;10.23;;;;;;;;;;4938528;29;20023;-80
2021/07/30 13:19:40;;;;;;;12.82;9.65;;;;;;;;;;4938724;29;20036;-80
2021/07/30 13:22:08;;;;;;;12.73;10.77;;;;;;;;;;4938480;29;20032;-80
2021/07/30 13:24:33;;;;;;;12.50;10.32;;;;;;;;;;4938282;29;20020;-80
2021/07/30 13:26:59;;;;;;;15.77;10.48;;;;;;;;;;4938068;29;20054;-80
2021/07/30 13:29:24;;;;;;;12.35;9.73;;;;;;;;;;4938465;29;20031;-80
2021/07/30 13:31:51;;;;;;;13.13;10.35;;;;;;;;;;4938131;29;20028;-81
2021/07/30 13:34:17;;;;;;;12.52;9.88;;;;;;;;;;4921310;29;20050;-81
2021/07/30 13:36:42;;;;;;;11.48;10.23;;;;;;;;;;4937758;29;20487;-81
2021/07/30 13:39:07;;;;;;;15.23;9.90;;;;;;;;;;4938354;29;20030;-79
2021/07/30 13:41:33;;;;;;;14.10;10.88;;;;;;;;;;4938086;29;20027;-79
2021/07/30 13:43:58;;;;;;;13.68;10.82;;;;;;;;;;4938294;29;20554;-80
2021/07/30 13:46:24;;;;;;;12.27;9.35;;;;;;;;;;4938396;29;20055;-80
2021/07/30 13:48:49;;;;;;;14.98;10.10;;;;;;;;;;4938443;29;20079;-80
2021/07/30 13:51:15;;;;;;;11.63;10.40;;;;;;;;;;4938168;29;20087;-80
2021/07/30 13:53:41;;;;;;;10.50;9.40;;;;;;;;;;4938316;29;20054;-81
2021/07/30 13:56:07;;;;;;;14.38;11.13;;;;;;;;;;4938264;29;20028;-80
2021/07/30 13:58:32;;;;;;;15.55;11.73;;;;;;;;;;4937915;29;20032;-80
2021/07/30 14:00:58;;;;;;;13.70;11.55;;;;;;;;;;4921104;29;20035;-80
2021/07/30 14:03:23;;;;;;;13.27;9.65;;;;;;;;;;4937897;29;20039;-79
2021/07/30 14:05:49;;;;;;;19.65;13.35;;;;;;;;;;4938257;29;20131;-79
2021/07/30 14:08:16;;;;;;;17.77;12.38;;;;;;;;;;4937595;29;20067;-78
2021/07/30 14:10:43;;;;;;;19.95;14.43;;;;;;;;;;4937751;29;20106;-80
2021/07/30 14:13:08;;;;;;;17.23;14.50;;;;;;;;;;4937687;29;20027;-79
2021/07/30 14:15:34;;;;;;;17.45;14.40;;;;;;;;;;4937740;29;20030;-79
2021/07/30 14:18:04;;;;;;;22.10;15.85;;;;;;;;;;4937368;29;20508;-79
2021/07/30 14:20:29;;;;;;;15.07;12.10;;;;;;;;;;4937470;29;20027;-78
2021/07/30 14:22:55;;;;;;;15.70;12.52;;;;;;;;;;4937447;29;20489;-79
2021/07/30 14:25:20;;;;;;;18.80;14.30;;;;;;;;;;4937548;29;20474;-79
2021/07/30 14:27:46;;;;;;;18.67;15.35;;;;;;;;;;4937385;29;20083;-79
2021/07/30 14:30:12;;;;;;;17.85;13.82;;;;;;;;;;4937124;29;20038;-79
2021/07/30 14:32:38;;;;;;;20.33;14.07;;;;;;;;;;4937716;29;20094;-79
2021/07/30 14:35:04;;;;;;;15.93;12.23;;;;;;;;;;4937374;29;20031;-79
2021/07/30 14:37:30;;;;;;;22.15;16.02;;;;;;;;;;4937369;29;20095;-78
2021/07/30 14:39:55;;;;;;;18.98;13.93;;;;;;;;;;4937352;29;20034;-79
2021/07/30 14:42:22;;;;;;;19.20;16.38;;;;;;;;;;4938722;29;20036;-80
2021/07/30 14:44:47;;;;;;;19.67;14.90;;;;;;;;;;4921440;29;20098;-79
2021/07/30 14:47:12;;;;;;;21.70;16.98;;;;;;;;;;4937125;29;20458;-79
2021/07/30 14:49:39;;;;;;;16.45;14.75;;;;;;;;;;4936615;29;20055;-79
2021/07/30 14:52:06;;;;;;;18.23;12.75;;;;;;;;;;4936951;29;20094;-79
2021/07/30 14:54:31;;;;;;;19.00;14.32;;;;;;;;;;4936985;29;20027;-79
2021/07/30 14:56:57;;;;;;;13.77;12.35;;;;;;;;;;4936977;29;20107;-80
2021/07/30 14:59:22;;;;;;;18.10;13.27;;;;;;;;;;4937046;29;20118;-79
2021/07/30 15:01:47;;;;;;;16.92;13.45;;;;;;;;;;4936613;29;20027;-79
2021/07/30 15:04:13;;;;;;;16.75;14.10;;;;;;;;;;4937152;29;20072;-80
2021/07/30 15:06:38;;;;;;;19.33;13.23;;;;;;;;;;4936675;29;20023;-80
2021/07/30 15:09:05;;;;;;;13.77;11.05;;;;;;;;;;4936788;29;20031;-79
2021/07/30 15:11:31;;;;;;;13.60;11.68;;;;;;;;;;4936349;29;20027;-79
2021/07/30 15:13:56;;;;;;;12.45;11.18;;;;;;;;;;4936476;29;20038;-80
2021/07/30 15:16:22;;;;;;;15.70;11.85;;;;;;;;;;4936472;29;20063;-80
2021/07/30 15:18:47;;;;;;;13.98;11.10;;;;;;;;;;4936640;29;20035;-79
2021/07/30 15:21:15;;;;;;;15.80;12.65;;;;;;;;;;4936535;29;20024;-80
2021/07/30 15:23:42;;;;;;;13.43;11.18;;;;;;;;;;4936451;29;20501;-80
2021/07/30 15:26:07;;;;;;;12.52;10.10;;;;;;;;;;4936386;29;20126;-80
2021/07/30 15:28:33;;;;;;;15.20;11.98;;;;;;;;;;4936354;29;20164;-80
2021/07/30 15:30:58;;;;;;;14.48;11.50;;;;;;;;;;4936271;29;20038;-80
2021/07/30 15:33:24;;;;;;;17.63;12.18;;;;;;;;;;4936433;29;20039;-79
2021/07/30 15:36:10;;;;;;;17.25;13.50;;;;;;;;;;4936297;29;20027;-81
2021/07/30 15:38:35;;;;;;;11.63;10.48;;;;;;;;;;4919576;29;20027;-85
2021/07/30 15:41:01;;;;;;;11.10;9.85;;;;;;;;;;4930056;29;20023;-81
2021/07/30 15:43:26;;;;;;;15.38;11.50;;;;;;;;;;4931535;29;20032;-82
2021/07/30 15:45:52;;;;;;;18.02;16.08;;;;;;;;;;4919178;29;20435;-83
2021/07/30 15:48:23;;;;;;;15.63;12.80;;;;;;;;;;4916971;29;20028;-81
2021/07/30 15:50:48;;;;;;;18.00;12.70;;;;;;;;;;4900433;29;20478;-83
2021/07/30 15:53:15;;;;;;;13.88;11.55;;;;;;;;;;4917099;29;20115;-81
2021/07/30 15:55:41;;;;;;;15.23;12.38;;;;;;;;;;4916872;29;20112;-81
2021/07/30 15:58:06;;;;;;;13.93;11.32;;;;;;;;;;4929339;29;20043;-81
2021/07/30 16:00:32;;;;;;;13.73;11.57;;;;;;;;;;4936109;29;20027;-81
2021/07/30 16:02:58;;;;;;;11.93;10.68;;;;;;;;;;4921130;29;20075;-81
2021/07/30 16:05:23;;;;;;;12.15;10.90;;;;;;;;;;4939722;29;20028;-81
2021/07/30 16:07:48;;;;;;;12.95;11.18;;;;;;;;;;4939463;29;20032;-80
2021/07/30 16:10:14;;;;;;;12.50;11.20;;;;;;;;;;4939709;29;20024;-80
2021/07/30 16:12:39;;;;;;;14.05;11.88;;;;;;;;;;4939700;29;20080;-81
2021/07/30 16:15:05;;;;;;;12.50;11.30;;;;;;;;;;4927855;29;20028;-81
2021/07/30 16:17:30;;;;;;;12.80;11.43;;;;;;;;;;4920452;29;20035;-81
2021/07/30 16:19:57;;;;;;;13.50;12.15;;;;;;;;;;4920477;29;20111;-81
2021/07/30 16:22:22;;;;;;;15.02;11.85;;;;;;;;;;4920259;29;20384;-81
2021/07/30 16:24:48;;;;;;;13.15;11.45;;;;;;;;;;4920192;29;20024;-81
2021/07/30 16:27:13;;;;;;;15.52;12.45;;;;;;;;;;4920142;29;20476;-80
2021/07/30 16:29:39;;;;;;;15.27;11.77;;;;;;;;;;4920335;29;20032;-80
2021/07/30 16:32:04;;;;;;;14.23;12.73;;;;;;;;;;4919963;29;20027;-80
2021/07/30 16:34:30;;;;;;;18.63;13.55;;;;;;;;;;4920219;29;20026;-81
2021/07/30 16:36:55;;;;;;;15.82;12.07;;;;;;;;;;4920270;29;20036;-81
2021/07/30 16:39:21;;;;;;;14.57;11.95;;;;;;;;;;4920034;29;20031;-81
2021/07/30 16:41:46;;;;;;;16.98;12.45;;;;;;;;;;4920274;29;20135;-82
2021/07/30 16:44:12;;;;;;;13.45;10.77;;;;;;;;;;4920410;29;20032;-80
2021/07/30 16:46:38;;;;;;;16.33;12.38;;;;;;;;;;4920142;29;20032;-81
2021/07/30 16:49:03;;;;;;;19.65;13.23;;;;;;;;;;4930331;29;20212;-82
2021/07/30 16:51:28;;;;;;;14.95;12.80;;;;;;;;;;4938798;29;20032;-81
2021/07/30 16:53:54;;;;;;;14.70;13.23;;;;;;;;;;4938913;29;20107;-81
2021/07/30 16:56:20;;;;;;;12.60;11.25;;;;;;;;;;4938796;29;20427;-83
2021/07/30 16:58:47;;;;;;;14.13;11.68;;;;;;;;;;4938833;29;20496;-83
2021/07/30 17:01:14;;;;;;;16.13;12.63;;;;;;;;;;4938629;29;20039;-83
2021/07/30 17:03:41;;;;;;;17.40;15.43;;;;;;;;;;4938811;29;20484;-80
2021/07/30 17:06:07;;;;;;;17.50;15.50;;;;;;;;;;4938579;29;20126;-83
2021/07/30 17:08:32;;;;;;;12.93;11.65;;;;;;;;;;4938488;29;20111;-81
2021/07/30 17:11:05;;;;;;;12.95;11.38;;;;;;;;;;4938604;29;20039;-80
2021/07/30 17:13:32;;;;;;;13.98;12.27;;;;;;;;;;4938302;29;20474;-81
2021/07/30 17:15:58;;;;;;;15.98;11.93;;;;;;;;;;4938387;29;20027;-80
2021/07/30 17:18:24;;;;;;;18.02;16.15;;;;;;;;;;4938368;29;20031;-82
2021/07/30 17:20:49;;;;;;;17.05;13.27;;;;;;;;;;4938456;29;20378;-79
2021/07/30 17:23:15;;;;;;;15.70;14.02;;;;;;;;;;4938393;29;20031;-81
2021/07/30 17:25:40;;;;;;;17.35;13.75;;;;;;;;;;4938344;29;20031;-80
2021/07/30 17:28:07;;;;;;;16.13;13.23;;;;;;;;;;4938042;29;20455;-80
2021/07/30 17:30:33;;;;;;;14.90;12.23;;;;;;;;;;4938103;29;20119;-82
2021/07/30 17:32:59;;;;;;;13.50;12.10;;;;;;;;;;4938300;29;20027;-86
2021/07/30 17:35:24;;;;;;;14.18;12.68;;;;;;;;;;4937002;29;20114;-79
2021/07/30 17:37:50;;;;;;;14.55;13.02;;;;;;;;;;4937688;29;20024;-78
2021/07/30 17:40:15;;;;;;;18.80;14.18;;;;;;;;;;4937922;29;20110;-78
2021/07/30 17:42:41;;;;;;;13.70;12.30;;;;;;;;;;4938281;29;20027;-77
2021/07/30 17:45:07;;;;;;;14.77;12.18;;;;;;;;;;4938222;29;20423;-77
2021/07/30 17:47:33;;;;;;;14.02;12.43;;;;;;;;;;4937976;29;20479;-77
2021/07/30 17:49:58;;;;;;;14.05;12.55;;;;;;;;;;4938779;29;20031;-78
2021/07/30 17:52:24;;;;;;;14.25;12.05;;;;;;;;;;4937837;29;20046;-78
2021/07/30 17:54:49;;;;;;;18.88;14.15;;;;;;;;;;4937810;29;20032;-81
2021/07/30 17:57:14;;;;;;;18.23;16.00;;;;;;;;;;4938325;29;20036;-78
2021/07/30 17:59:43;;;;;;;13.32;12.00;;;;;;;;;;4938013;29;20107;-81
2021/07/30 18:02:08;;;;;;;19.98;11.88;;;;;;;;;;4937935;29;20068;-80
2021/07/30 18:04:34;;;;;;;14.45;11.90;;;;;;;;;;4937713;29;20059;-79
2021/07/30 18:06:59;;;;;;;16.45;12.52;;;;;;;;;;4937619;29;20106;-79
2021/07/30 18:09:25;;;;;;;14.38;11.80;;;;;;;;;;4937750;29;20030;-80
2021/07/30 18:11:50;;;;;;;13.65;12.25;;;;;;;;;;4937635;29;20031;-81
2021/07/30 18:14:16;;;;;;;14.02;12.43;;;;;;;;;;4937819;29;20110;-78
2021/07/30 18:16:42;;;;;;;14.25;12.63;;;;;;;;;;4937814;29;20032;-79
2021/07/30 18:19:07;;;;;;;15.48;12.07;;;;;;;;;;4937503;29;20487;-79
2021/07/30 18:21:36;;;;;;;15.57;13.43;;;;;;;;;;4937263;29;20031;-79
2021/07/30 18:24:02;;;;;;;18.70;12.88;;;;;;;;;;4937852;29;20058;-78
2021/07/30 18:26:28;;;;;;;13.48;12.18;;;;;;;;;;4936905;29;20067;-79
2021/07/30 18:28:53;;;;;;;16.05;13.15;;;;;;;;;;4937407;29;20474;-79
2021/07/30 18:31:19;;;;;;;15.55;13.05;;;;;;;;;;4937151;29;20034;-79
2021/07/30 18:33:44;;;;;;;13.18;11.75;;;;;;;;;;4936964;29;20110;-79
2021/07/30 18:36:14;;;;;;;14.77;13.32;;;;;;;;;;4937113;29;20062;-79
2021/07/30 18:38:39;;;;;;;17.17;15.30;;;;;;;;;;4937026;29;20059;-79
2021/07/30 18:41:05;;;;;;;15.50;13.35;;;;;;;;;;4937360;29;20067;-78
2021/07/30 18:43:30;;;;;;;15.27;13.65;;;;;;;;;;4937143;29;20028;-78
2021/07/30 18:45:56;;;;;;;13.82;12.23;;;;;;;;;;4936797;29;20063;-78
2021/07/30 18:48:21;;;;;;;17.05;13.95;;;;;;;;;;4936726;29;20046;-78
2021/07/30 18:50:47;;;;;;;20.55;15.55;;;;;;;;;;4936839;29;20115;-78
2021/07/30 18:53:13;;;;;;;15.85;14.15;;;;;;;;;;4937379;29;20111;-79
2021/07/30 18:55:38;;;;;;;14.88;13.27;;;;;;;;;;4937037;29;20467;-78
2021/07/30 18:58:03;;;;;;;13.85;12.30;;;;;;;;;;4936718;29;20024;-78
2021/07/30 19:00:29;;;;;;;15.05;12.25;;;;;;;;;;4936940;29;20043;-78
2021/07/30 19:02:54;;;;;;;15.23;12.85;;;;;;;;;;4937001;29;20051;-78
2021/07/30 19:05:20;;;;;;;14.70;13.20;;;;;;;;;;4936525;29;20038;-79
2021/07/30 19:07:46;;;;;;;19.27;14.30;;;;;;;;;;4937008;29;20058;-79
2021/07/30 19:10:12;;;;;;;15.27;12.70;;;;;;;;;;4936388;29;20032;-78
2021/07/30 19:12:37;;;;;;;18.73;13.73;;;;;;;;;;4936771;29;20476;-79
2021/07/30 19:15:03;;;;;;;15.07;12.57;;;;;;;;;;4936521;29;20106;-78
2021/07/30 19:17:28;;;;;;;14.45;12.48;;;;;;;;;;4936041;29;20131;-81
2021/07/30 19:19:54;;;;;;;15.40;13.52;;;;;;;;;;4936382;29;20034;-79
2021/07/30 19:22:19;;;;;;;16.50;13.60;;;;;;;;;;4936333;29;20082;-77
2021/07/30 19:24:45;;;;;;;15.27;13.68;;;;;;;;;;4936385;29;20483;-76
2021/07/30 19:27:10;;;;;;;14.35;12.85;;;;;;;;;;4935982;29;20062;-77
2021/07/30 19:29:37;;;;;;;13.38;12.13;;;;;;;;;;4935885;29;20046;-79
2021/07/30 19:32:03;;;;;;;15.07;13.35;;;;;;;;;;4917196;29;20040;-82
2021/07/30 19:34:28;;;;;;;14.77;12.75;;;;;;;;;;4917407;29;20108;-83
2021/07/30 19:36:53;;;;;;;15.30;13.32;;;;;;;;;;4917074;29;20475;-78
2021/07/30 19:39:19;;;;;;;18.70;13.10;;;;;;;;;;4917460;29;20168;-78
2021/07/30 19:41:44;;;;;;;15.30;12.65;;;;;;;;;;4916841;29;20024;-78
2021/07/30 19:44:10;;;;;;;15.55;12.60;;;;;;;;;;4917212;29;20392;-78
2021/07/30 19:46:35;;;;;;;15.18;12.10;;;;;;;;;;4924379;29;20036;-78
2021/07/30 19:49:01;;;;;;;14.25;12.70;;;;;;;;;;4936233;29;20035;-78
2021/07/30 19:51:27;;;;;;;14.63;12.00;;;;;;;;;;4935947;29;20024;-79
2021/07/30 19:53:56;;;;;;;14.50;12.95;;;;;;;;;;4935967;29;20035;-78
2021/07/30 19:56:22;;;;;;;14.00;12.27;;;;;;;;;;4936424;29;20040;-78
2021/07/30 19:58:49;;;;;;;15.57;12.63;;;;;;;;;;4936280;29;20471;-78
2021/07/30 20:01:14;;;;;;;13.77;12.38;;;;;;;;;;4936079;29;20050;-78
2021/07/30 20:03:40;;;;;;;13.82;12.38;;;;;;;;;;4936292;29;20032;-79
2021/07/30 20:06:17;;;;;;;14.77;13.00;;;;;;;;;;4918883;29;20391;-79
2021/07/30 20:08:44;;;;;;;14.98;12.98;;;;;;;;;;4935963;29;20118;-79
2021/07/30 20:11:11;;;;;;;15.68;13.05;;;;;;;;;;4935988;29;20066;-79
2021/07/30 20:13:37;;;;;;;13.82;12.15;;;;;;;;;;4936187;29;20440;-79
2021/07/30 20:16:02;;;;;;;14.52;12.85;;;;;;;;;;4935959;29;20114;-78
2021/07/30 20:18:28;;;;;;;14.88;13.25;;;;;;;;;;4935753;29;20027;-78
2021/07/30 20:20:53;;;;;;;14.82;13.15;;;;;;;;;;4935641;29;20028;-79
2021/07/30 20:23:18;;;;;;;17.88;13.05;;;;;;;;;;4936147;29;20432;-78
2021/07/30 20:25:44;;;;;;;20.02;13.27;;;;;;;;;;4935315;29;20020;-78
2021/07/30 20:28:09;;;;;;;16.48;12.75;;;;;;;;;;4935083;29;20533;-78
2021/07/30 20:30:35;;;;;;;15.25;12.32;;;;;;;;;;4935688;29;20073;-79
2021/07/30 20:33:01;;;;;;;16.58;14.30;;;;;;;;;;4935737;29;20036;-78
2021/07/30 20:35:27;;;;;;;15.35;13.32;;;;;;;;;;4935728;29;20087;-78
2021/07/30 20:37:52;;;;;;;13.40;12.00;;;;;;;;;;4935223;29;20024;-78
2021/07/30 20:40:18;;;;;;;14.00;11.95;;;;;;;;;;4935201;29;20028;-78
2021/07/30 20:42:43;;;;;;;13.88;12.48;;;;;;;;;;4935213;29;20039;-78
2021/07/30 20:45:09;;;;;;;15.48;13.38;;;;;;;;;;4935133;29;20031;-78
2021/07/30 20:47:34;;;;;;;16.85;14.35;;;;;;;;;;4935090;29;20031;-78
2021/07/30 20:49:59;;;;;;;15.40;13.25;;;;;;;;;;4938332;29;20024;-78
2021/07/30 20:52:25;;;;;;;13.40;12.02;;;;;;;;;;4938451;29;20051;-78
2021/07/30 20:54:50;;;;;;;13.93;11.55;;;;;;;;;;4938970;29;20034;-78
2021/07/30 20:57:17;;;;;;;14.57;11.68;;;;;;;;;;4938846;29;20027;-78
2021/07/30 20:59:42;;;;;;;13.05;11.23;;;;;;;;;;4938997;29;20376;-78
2021/07/30 21:02:07;;;;;;;17.05;10.98;;;;;;;;;;4938990;29;20035;-78
2021/07/30 21:04:33;;;;;;;14.25;11.50;;;;;;;;;;4938863;29;20102;-78
2021/07/30 21:06:59;;;;;;;15.30;11.50;;;;;;;;;;4938743;29;20058;-78
2021/07/30 21:09:24;;;;;;;16.33;12.50;;;;;;;;;;4938877;29;20484;-78
2021/07/30 21:11:51;;;;;;;13.85;12.18;;;;;;;;;;4939087;29;20107;-78
2021/07/30 21:14:16;;;;;;;14.25;12.05;;;;;;;;;;4938642;29;20027;-78
2021/07/30 21:16:42;;;;;;;15.23;12.68;;;;;;;;;;4921555;29;20313;-78
2021/07/30 21:19:10;;;;;;;15.45;12.18;;;;;;;;;;4938582;29;20133;-78
2021/07/30 21:21:35;;;;;;;14.93;13.43;;;;;;;;;;4938369;29;20028;-78
2021/07/30 21:24:01;;;;;;;17.38;12.80;;;;;;;;;;4938791;29;20130;-78
2021/07/30 21:26:26;;;;;;;16.23;12.50;;;;;;;;;;4921337;29;20047;-77
2021/07/30 21:28:51;;;;;;;12.73;11.35;;;;;;;;;;4938229;29;20032;-78
2021/07/30 21:31:17;;;;;;;16.35;13.10;;;;;;;;;;4938266;29;20027;-78
2021/07/30 21:33:42;;;;;;;17.23;12.68;;;;;;;;;;4938501;29;20020;-78
2021/07/30 21:36:07;;;;;;;14.98;12.20;;;;;;;;;;4938550;29;20039;-78
2021/07/30 21:38:33;;;;;;;13.65;11.90;;;;;;;;;;4938173;29;20110;-78
2021/07/30 21:40:58;;;;;;;13.98;12.35;;;;;;;;;;4938204;29;20023;-78
2021/07/30 21:43:24;;;;;;;14.88;12.32;;;;;;;;;;4938247;29;20023;-78
2021/07/30 21:45:52;;;;;;;14.40;12.48;;;;;;;;;;4938025;29;20031;-78
2021/07/30 21:48:17;;;;;;;13.85;12.40;;;;;;;;;;4938490;29;20401;-78
2021/07/30 21:50:43;;;;;;;15.35;11.55;;;;;;;;;;4938206;29;20027;-78